sensor_id;sensor_type;location;lat;lon;timestamp;pressure;altitude;pressure_sealevel;temperature;humidity
7182;BME280;3632;42.724;23.298;2022-09-13T00:01:08;95122.41;;;16.50;72.12
7182;BME280;3632;42.724;23.298;2022-09-13T00:03:35;95218.97;;;17.11;72.42
7182;BME280;3632;42.724;23.298;2022-09-13T00:06:10;95108.56;;;16.51;72.41
7182;BME280;3632;42.724;23.298;2022-09-13T00:08:39;95199.19;;;17.11;72.45
7182;BME280;3632;42.724;23.298;2022-09-13T00:11:06;95203.22;;;17.14;72.27
7182;BME280;3632;42.724;23.298;2022-09-13T00:13:33;95193.88;;;17.21;72.19
7182;BME280;3632;42.724;23.298;2022-09-13T00:16:00;95196.59;;;17.19;72.16
7182;BME280;3632;42.724;23.298;2022-09-13T00:18:28;95182.94;;;17.03;72.27
7182;BME280;3632;42.724;23.298;2022-09-13T00:21:03;95185.50;;;17.19;72.44
7182;BME280;3632;42.724;23.298;2022-09-13T00:23:30;95261.97;;;17.18;72.30
7182;BME280;3632;42.724;23.298;2022-09-13T00:26:04;95183.09;;;17.17;72.57
7182;BME280;3632;42.724;23.298;2022-09-13T00:28:31;95181.16;;;17.19;72.80
7182;BME280;3632;42.724;23.298;2022-09-13T00:30:59;95179.38;;;17.12;72.76
7182;BME280;3632;42.724;23.298;2022-09-13T00:33:26;95182.94;;;17.27;72.51
7182;BME280;3632;42.724;23.298;2022-09-13T00:35:53;95182.59;;;17.30;72.40
7182;BME280;3632;42.724;23.298;2022-09-13T00:38:19;95179.56;;;17.26;72.40
7182;BME280;3632;42.724;23.298;2022-09-13T00:40:46;95180.66;;;17.32;72.25
7182;BME280;3632;42.724;23.298;2022-09-13T00:43:17;95133.53;;;16.99;72.47
7182;BME280;3632;42.724;23.298;2022-09-13T00:45:46;94976.75;;;16.00;72.51
7182;BME280;3632;42.724;23.298;2022-09-13T00:48:18;95173.59;;;17.26;72.88
7182;BME280;3632;42.724;23.298;2022-09-13T00:50:49;95174.88;;;17.22;72.66
7182;BME280;3632;42.724;23.298;2022-09-13T00:53:20;95171.66;;;17.12;73.26
7182;BME280;3632;42.724;23.298;2022-09-13T00:55:52;95178.75;;;17.18;73.31
7182;BME280;3632;42.724;23.298;2022-09-13T00:58:25;94998.31;;;16.08;73.22
7182;BME280;3632;42.724;23.298;2022-09-13T01:00:54;95126.63;;;16.92;73.14
7182;BME280;3632;42.724;23.298;2022-09-13T01:03:25;95171.81;;;17.26;73.26
7182;BME280;3632;42.724;23.298;2022-09-13T01:05:56;95170.22;;;17.25;73.46
7182;BME280;3632;42.724;23.298;2022-09-13T01:08:26;95169.56;;;17.23;73.38
7182;BME280;3632;42.724;23.298;2022-09-13T01:10:56;95107.81;;;16.83;73.24
7182;BME280;3632;42.724;23.298;2022-09-13T01:13:29;95175.34;;;17.25;73.82
7182;BME280;3632;42.724;23.298;2022-09-13T01:15:58;95174.41;;;17.26;73.86
7182;BME280;3632;42.724;23.298;2022-09-13T01:18:25;95147.88;;;17.10;73.44
7182;BME280;3632;42.724;23.298;2022-09-13T01:24:47;95161.00;;;17.23;73.71
7182;BME280;3632;42.724;23.298;2022-09-13T01:27:35;95122.75;;;16.96;73.74
7182;BME280;3632;42.724;23.298;2022-09-13T01:30:16;95163.94;;;17.20;73.87
7182;BME280;3632;42.724;23.298;2022-09-13T01:33:30;95164.88;;;17.19;73.94
7182;BME280;3632;42.724;23.298;2022-09-13T01:39:02;95144.97;;;17.05;74.60
7182;BME280;3632;42.724;23.298;2022-09-13T01:41:47;95157.97;;;17.11;74.26
7182;BME280;3632;42.724;23.298;2022-09-13T01:44:27;95023.22;;;16.23;74.44
7182;BME280;3632;42.724;23.298;2022-09-13T01:47:02;95105.56;;;16.72;75.15
7182;BME280;3632;42.724;23.298;2022-09-13T01:49:37;95110.22;;;16.68;75.18
7182;BME280;3632;42.724;23.298;2022-09-13T01:52:20;95152.69;;;16.97;75.48
7182;BME280;3632;42.724;23.298;2022-09-13T01:54:55;95169.59;;;16.91;75.79
7182;BME280;3632;42.724;23.298;2022-09-13T01:57:27;95150.44;;;16.85;75.61
7182;BME280;3632;42.724;23.298;2022-09-13T01:59:59;95069.66;;;16.30;75.88
7182;BME280;3632;42.724;23.298;2022-09-13T02:02:31;94903.38;;;15.16;75.83
7182;BME280;3632;42.724;23.298;2022-09-13T02:05:04;95101.34;;;16.55;75.99
7182;BME280;3632;42.724;23.298;2022-09-13T02:07:35;95175.22;;;16.78;76.10
7182;BME280;3632;42.724;23.298;2022-09-13T02:10:08;95155.44;;;16.71;76.41
7182;BME280;3632;42.724;23.298;2022-09-13T02:12:39;95103.59;;;16.41;77.04
7182;BME280;3632;42.724;23.298;2022-09-13T02:15:11;95006.91;;;15.74;77.02
7182;BME280;3632;42.724;23.298;2022-09-13T02:17:47;95043.91;;;15.97;76.88
7182;BME280;3632;42.724;23.298;2022-09-13T02:20:18;95124.47;;;16.30;76.90
7182;BME280;3632;42.724;23.298;2022-09-13T02:22:50;95126.91;;;16.40;77.14
7182;BME280;3632;42.724;23.298;2022-09-13T02:25:21;95147.00;;;16.53;77.73
7182;BME280;3632;42.724;23.298;2022-09-13T02:27:51;94916.00;;;14.93;77.45
7182;BME280;3632;42.724;23.298;2022-09-13T02:30:23;94779.47;;;13.46;77.11
7182;BME280;3632;42.724;23.298;2022-09-13T02:32:55;95148.53;;;16.21;77.91
7182;BME280;3632;42.724;23.298;2022-09-13T02:35:28;95149.72;;;16.35;77.80
7182;BME280;3632;42.724;23.298;2022-09-13T02:38:02;95062.34;;;15.77;77.86
7182;BME280;3632;42.724;23.298;2022-09-13T02:40:33;94759.94;;;13.19;77.75
7182;BME280;3632;42.724;23.298;2022-09-13T02:43:07;94820.91;;;13.67;77.81
7182;BME280;3632;42.724;23.298;2022-09-13T02:45:41;95072.75;;;15.67;78.10
7182;BME280;3632;42.724;23.298;2022-09-13T02:48:18;94985.22;;;14.51;78.07
7182;BME280;3632;42.724;23.298;2022-09-13T02:50:50;94942.88;;;14.03;78.50
7182;BME280;3632;42.724;23.298;2022-09-13T02:53:25;95154.81;;;16.19;78.39
7182;BME280;3632;42.724;23.298;2022-09-13T02:56:01;94856.25;;;14.33;78.43
7182;BME280;3632;42.724;23.298;2022-09-13T02:58:34;95154.78;;;15.61;78.43
7182;BME280;3632;42.724;23.298;2022-09-13T03:01:05;94867.69;;;14.38;78.16
7182;BME280;3632;42.724;23.298;2022-09-13T03:03:34;94871.94;;;14.30;78.60
7182;BME280;3632;42.724;23.298;2022-09-13T03:06:01;94885.75;;;13.67;78.85
7182;BME280;3632;42.724;23.298;2022-09-13T03:08:28;95184.22;;;16.08;78.64
7182;BME280;3632;42.724;23.298;2022-09-13T03:11:00;94735.66;;;12.88;78.54
7182;BME280;3632;42.724;23.298;2022-09-13T03:13:53;94895.47;;;13.82;79.06
7182;BME280;3632;42.724;23.298;2022-09-13T03:16:36;94909.88;;;14.52;79.11
7182;BME280;3632;42.724;23.298;2022-09-13T03:19:22;95181.16;;;16.13;78.66
7182;BME280;3632;42.724;23.298;2022-09-13T03:22:14;95148.72;;;16.12;78.87
7182;BME280;3632;42.724;23.298;2022-09-13T03:24:49;95124.88;;;15.93;78.72
7182;BME280;3632;42.724;23.298;2022-09-13T03:27:24;94736.69;;;12.95;78.52
7182;BME280;3632;42.724;23.298;2022-09-13T03:30:02;94757.69;;;12.98;78.53
7182;BME280;3632;42.724;23.298;2022-09-13T03:32:35;94973.94;;;14.44;78.62
7182;BME280;3632;42.724;23.298;2022-09-13T03:35:13;95076.25;;;15.66;78.77
7182;BME280;3632;42.724;23.298;2022-09-13T03:37:49;95087.69;;;15.72;78.84
7182;BME280;3632;42.724;23.298;2022-09-13T03:40:23;95155.75;;;16.10;78.62
7182;BME280;3632;42.724;23.298;2022-09-13T03:42:57;94797.81;;;13.85;78.18
7182;BME280;3632;42.724;23.298;2022-09-13T03:45:30;95084.28;;;15.63;78.49
7182;BME280;3632;42.724;23.298;2022-09-13T03:48:01;95115.50;;;15.84;78.57
7182;BME280;3632;42.724;23.298;2022-09-13T03:50:30;95124.88;;;15.93;78.71
7182;BME280;3632;42.724;23.298;2022-09-13T03:53:01;95017.03;;;14.40;78.60
7182;BME280;3632;42.724;23.298;2022-09-13T03:55:31;94786.97;;;13.04;79.11
7182;BME280;3632;42.724;23.298;2022-09-13T03:57:58;95114.81;;;15.66;79.65
7182;BME280;3632;42.724;23.298;2022-09-13T04:00:26;94974.34;;;14.57;79.49
7182;BME280;3632;42.724;23.298;2022-09-13T04:02:54;94909.00;;;14.17;79.69
7182;BME280;3632;42.724;23.298;2022-09-13T04:05:20;95161.47;;;15.87;80.29
7182;BME280;3632;42.724;23.298;2022-09-13T04:07:49;95168.84;;;15.82;80.00
7182;BME280;3632;42.724;23.298;2022-09-13T04:10:15;94938.22;;;14.25;79.59
7182;BME280;3632;42.724;23.298;2022-09-13T04:12:42;94929.91;;;14.05;79.78
7182;BME280;3632;42.724;23.298;2022-09-13T04:15:09;94871.78;;;14.05;79.61
7182;BME280;3632;42.724;23.298;2022-09-13T04:17:36;94892.22;;;13.97;79.69
7182;BME280;3632;42.724;23.298;2022-09-13T04:20:03;94963.72;;;14.52;79.50
7182;BME280;3632;42.724;23.298;2022-09-13T04:22:30;94768.91;;;12.70;79.25
7182;BME280;3632;42.724;23.298;2022-09-13T04:24:59;94912.22;;;13.94;79.85
7182;BME280;3632;42.724;23.298;2022-09-13T04:27:26;94866.22;;;13.92;79.95
7182;BME280;3632;42.724;23.298;2022-09-13T04:29:53;95173.22;;;15.90;80.42
7182;BME280;3632;42.724;23.298;2022-09-13T04:32:20;95275.53;;;15.86;79.93
7182;BME280;3632;42.724;23.298;2022-09-13T04:34:47;95151.56;;;15.67;79.66
7182;BME280;3632;42.724;23.298;2022-09-13T04:37:13;95168.19;;;15.80;79.91
7182;BME280;3632;42.724;23.298;2022-09-13T04:39:40;94978.69;;;13.95;79.69
7182;BME280;3632;42.724;23.298;2022-09-13T04:42:09;94977.66;;;13.88;79.41
7182;BME280;3632;42.724;23.298;2022-09-13T04:44:36;94909.00;;;14.17;79.04
7182;BME280;3632;42.724;23.298;2022-09-13T04:47:03;94762.78;;;12.63;78.98
7182;BME280;3632;42.724;23.298;2022-09-13T04:49:32;95137.59;;;15.61;78.57
7182;BME280;3632;42.724;23.298;2022-09-13T04:51:59;94842.78;;;13.79;78.04
7182;BME280;3632;42.724;23.298;2022-09-13T04:54:26;95132.44;;;15.53;78.00
7182;BME280;3632;42.724;23.298;2022-09-13T04:56:53;95203.59;;;15.94;77.63
7182;BME280;3632;42.724;23.298;2022-09-13T04:59:21;95194.25;;;15.93;78.05
7182;BME280;3632;42.724;23.298;2022-09-13T05:01:48;95200.56;;;15.99;77.66
7182;BME280;3632;42.724;23.298;2022-09-13T05:04:15;95031.50;;;14.32;77.38
7182;BME280;3632;42.724;23.298;2022-09-13T05:06:42;94942.03;;;14.38;76.99
7182;BME280;3632;42.724;23.298;2022-09-13T05:09:11;94995.16;;;14.80;76.83
7182;BME280;3632;42.724;23.298;2022-09-13T05:11:38;94901.84;;;14.21;77.06
7182;BME280;3632;42.724;23.298;2022-09-13T05:14:05;95057.78;;;15.29;76.82
7182;BME280;3632;42.724;23.298;2022-09-13T05:16:33;95199.38;;;16.27;76.76
7182;BME280;3632;42.724;23.298;2022-09-13T05:19:02;94985.81;;;14.71;76.04
7182;BME280;3632;42.724;23.298;2022-09-13T05:21:29;95164.50;;;16.25;76.09
7182;BME280;3632;42.724;23.298;2022-09-13T05:23:57;94971.91;;;14.81;75.74
7182;BME280;3632;42.724;23.298;2022-09-13T05:26:26;94964.13;;;14.99;76.12
7182;BME280;3632;42.724;23.298;2022-09-13T05:28:56;95067.63;;;15.83;75.53
7182;BME280;3632;42.724;23.298;2022-09-13T05:31:24;95173.13;;;16.08;75.30
7182;BME280;3632;42.724;23.298;2022-09-13T05:33:55;95105.31;;;16.17;75.36
7182;BME280;3632;42.724;23.298;2022-09-13T05:36:23;95193.22;;;16.86;75.54
7182;BME280;3632;42.724;23.298;2022-09-13T05:38:51;95086.19;;;16.19;75.23
7182;BME280;3632;42.724;23.298;2022-09-13T05:41:18;95206.44;;;17.00;74.70
7182;BME280;3632;42.724;23.298;2022-09-13T05:43:45;95130.44;;;16.47;74.80
7182;BME280;3632;42.724;23.298;2022-09-13T05:46:13;95123.53;;;16.56;74.55
7182;BME280;3632;42.724;23.298;2022-09-13T05:48:41;95195.16;;;17.17;73.49
7182;BME280;3632;42.724;23.298;2022-09-13T05:51:10;95199.38;;;17.10;73.26
7182;BME280;3632;42.724;23.298;2022-09-13T05:53:39;95011.28;;;15.90;73.41
7182;BME280;3632;42.724;23.298;2022-09-13T05:56:06;95198.56;;;17.09;73.06
7182;BME280;3632;42.724;23.298;2022-09-13T05:58:37;94960.63;;;15.58;73.40
7182;BME280;3632;42.724;23.298;2022-09-13T06:01:04;95202.56;;;17.12;73.37
7182;BME280;3632;42.724;23.298;2022-09-13T06:03:31;95163.28;;;16.94;73.21
7182;BME280;3632;42.724;23.298;2022-09-13T06:05:58;95208.84;;;17.17;73.02
7182;BME280;3632;42.724;23.298;2022-09-13T06:08:28;95204.50;;;17.18;73.16
7182;BME280;3632;42.724;23.298;2022-09-13T06:10:56;95109.06;;;16.55;73.30
7182;BME280;3632;42.724;23.298;2022-09-13T06:13:24;95042.31;;;16.13;73.64
7182;BME280;3632;42.724;23.298;2022-09-13T06:15:51;95210.94;;;17.22;73.70
7182;BME280;3632;42.724;23.298;2022-09-13T06:18:19;95204.00;;;17.30;73.29
7182;BME280;3632;42.724;23.298;2022-09-13T06:20:46;95213.34;;;17.40;72.74
7182;BME280;3632;42.724;23.298;2022-09-13T06:23:14;95219.94;;;17.42;72.24
7182;BME280;3632;42.724;23.298;2022-09-13T06:25:42;95216.41;;;17.43;71.92
7182;BME280;3632;42.724;23.298;2022-09-13T06:28:09;95190.00;;;17.25;71.85
7182;BME280;3632;42.724;23.298;2022-09-13T06:30:35;95212.50;;;17.55;72.18
7182;BME280;3632;42.724;23.298;2022-09-13T06:33:02;95223.16;;;17.36;72.75
7182;BME280;3632;42.724;23.298;2022-09-13T06:35:29;95202.34;;;17.54;72.81
7182;BME280;3632;42.724;23.298;2022-09-13T06:37:56;95215.09;;;17.63;72.64
7182;BME280;3632;42.724;23.298;2022-09-13T06:40:24;95221.84;;;17.72;71.95
7182;BME280;3632;42.724;23.298;2022-09-13T06:42:53;95214.72;;;17.83;71.74
7182;BME280;3632;42.724;23.298;2022-09-13T06:45:19;95214.59;;;17.68;71.65
7182;BME280;3632;42.724;23.298;2022-09-13T06:47:46;95223.72;;;17.95;71.53
7182;BME280;3632;42.724;23.298;2022-09-13T06:50:13;95026.56;;;16.80;69.68
7182;BME280;3632;42.724;23.298;2022-09-13T06:52:40;95048.75;;;16.17;68.80
7182;BME280;3632;42.724;23.298;2022-09-13T06:55:08;95183.38;;;17.63;69.55
7182;BME280;3632;42.724;23.298;2022-09-13T06:57:35;95222.44;;;17.99;69.50
7182;BME280;3632;42.724;23.298;2022-09-13T07:00:04;95192.50;;;17.82;69.06
7182;BME280;3632;42.724;23.298;2022-09-13T07:02:31;95223.97;;;18.08;69.12
7182;BME280;3632;42.724;23.298;2022-09-13T07:04:58;95237.19;;;18.13;69.27
7182;BME280;3632;42.724;23.298;2022-09-13T07:07:25;95214.34;;;18.02;68.99
7182;BME280;3632;42.724;23.298;2022-09-13T07:09:52;95140.84;;;17.59;68.84
7182;BME280;3632;42.724;23.298;2022-09-13T07:12:19;95238.28;;;18.26;68.31
7182;BME280;3632;42.724;23.298;2022-09-13T07:14:46;95189.88;;;17.98;68.23
7182;BME280;3632;42.724;23.298;2022-09-13T07:17:14;95236.47;;;18.35;67.75
7182;BME280;3632;42.724;23.298;2022-09-13T07:19:41;95129.41;;;17.69;67.64
7182;BME280;3632;42.724;23.298;2022-09-13T07:22:08;95135.47;;;17.76;66.87
7182;BME280;3632;42.724;23.298;2022-09-13T07:24:35;95218.09;;;18.30;67.29
7182;BME280;3632;42.724;23.298;2022-09-13T07:27:02;95242.69;;;18.49;67.58
7182;BME280;3632;42.724;23.298;2022-09-13T07:29:29;95238.81;;;18.53;66.65
7182;BME280;3632;42.724;23.298;2022-09-13T07:31:55;95245.88;;;18.51;66.57
7182;BME280;3632;42.724;23.298;2022-09-13T07:34:25;95243.13;;;18.60;66.23
7182;BME280;3632;42.724;23.298;2022-09-13T07:36:52;95240.50;;;18.68;65.88
7182;BME280;3632;42.724;23.298;2022-09-13T07:39:19;95240.16;;;18.71;66.18
7182;BME280;3632;42.724;23.298;2022-09-13T07:41:45;95240.00;;;18.73;65.73
7182;BME280;3632;42.724;23.298;2022-09-13T07:44:12;95239.28;;;18.87;65.61
7182;BME280;3632;42.724;23.298;2022-09-13T07:46:39;95239.69;;;18.99;63.67
7182;BME280;3632;42.724;23.298;2022-09-13T07:49:09;95241.28;;;19.00;63.54
7182;BME280;3632;42.724;23.298;2022-09-13T07:51:39;95206.97;;;18.91;62.38
7182;BME280;3632;42.724;23.298;2022-09-13T07:54:10;95241.97;;;19.16;61.25
7182;BME280;3632;42.724;23.298;2022-09-13T07:56:38;95253.06;;;19.25;59.98
7182;BME280;3632;42.724;23.298;2022-09-13T07:59:09;95250.91;;;19.29;59.90
7182;BME280;3632;42.724;23.298;2022-09-13T08:01:38;95144.53;;;18.65;59.77
7182;BME280;3632;42.724;23.298;2022-09-13T08:04:06;95242.09;;;19.46;58.57
7182;BME280;3632;42.724;23.298;2022-09-13T08:06:35;95243.91;;;19.37;58.18
7182;BME280;3632;42.724;23.298;2022-09-13T08:09:04;95233.69;;;19.44;57.73
7182;BME280;3632;42.724;23.298;2022-09-13T08:11:33;95237.94;;;19.59;57.89
7182;BME280;3632;42.724;23.298;2022-09-13T08:14:01;95227.59;;;19.59;57.17
7182;BME280;3632;42.724;23.298;2022-09-13T08:16:28;95170.06;;;19.20;56.44
7182;BME280;3632;42.724;23.298;2022-09-13T08:18:57;95238.41;;;19.92;57.46
7182;BME280;3632;42.724;23.298;2022-09-13T08:21:25;95234.72;;;20.16;55.15
7182;BME280;3632;42.724;23.298;2022-09-13T08:23:54;95227.59;;;20.18;54.45
7182;BME280;3632;42.724;23.298;2022-09-13T08:26:25;95243.22;;;19.95;54.11
7182;BME280;3632;42.724;23.298;2022-09-13T08:28:55;95045.25;;;19.05;51.78
7182;BME280;3632;42.724;23.298;2022-09-13T08:31:22;95101.28;;;19.19;51.91
7182;BME280;3632;42.724;23.298;2022-09-13T08:33:49;95223.06;;;20.05;52.60
7182;BME280;3632;42.724;23.298;2022-09-13T08:36:16;95229.66;;;20.23;53.51
7182;BME280;3632;42.724;23.298;2022-09-13T08:38:45;95235.63;;;20.52;54.10
7182;BME280;3632;42.724;23.298;2022-09-13T08:44:12;95223.56;;;20.81;51.21
7182;BME280;3632;42.724;23.298;2022-09-13T08:46:44;95219.91;;;20.75;49.98
7182;BME280;3632;42.724;23.298;2022-09-13T08:49:15;95215.38;;;20.77;48.95
7182;BME280;3632;42.724;23.298;2022-09-13T08:51:46;95215.00;;;20.80;48.54
7182;BME280;3632;42.724;23.298;2022-09-13T08:54:14;95169.25;;;20.87;50.35
7182;BME280;3632;42.724;23.298;2022-09-13T08:56:47;95203.34;;;21.33;47.51
7182;BME280;3632;42.724;23.298;2022-09-13T08:59:36;95201.63;;;21.19;46.39
7182;BME280;3632;42.724;23.298;2022-09-13T09:02:17;95204.59;;;20.95;48.53
7182;BME280;3632;42.724;23.298;2022-09-13T09:04:53;95204.84;;;20.79;48.50
7182;BME280;3632;42.724;23.298;2022-09-13T09:07:26;95218.06;;;20.69;48.62
7182;BME280;3632;42.724;23.298;2022-09-13T09:09:58;95220.56;;;20.63;48.68
7182;BME280;3632;42.724;23.298;2022-09-13T09:12:31;95221.38;;;20.63;48.53
7182;BME280;3632;42.724;23.298;2022-09-13T09:15:08;95214.78;;;20.61;47.85
7182;BME280;3632;42.724;23.298;2022-09-13T09:17:44;95220.22;;;20.66;47.74
7182;BME280;3632;42.724;23.298;2022-09-13T09:20:20;95217.03;;;20.85;47.47
7182;BME280;3632;42.724;23.298;2022-09-13T09:22:50;95215.16;;;21.15;47.65
7182;BME280;3632;42.724;23.298;2022-09-13T09:25:18;95212.59;;;21.42;48.00
7182;BME280;3632;42.724;23.298;2022-09-13T09:27:46;95204.25;;;21.75;47.17
7182;BME280;3632;42.724;23.298;2022-09-13T09:30:14;95204.88;;;22.11;46.69
7182;BME280;3632;42.724;23.298;2022-09-13T09:32:48;95196.78;;;22.34;44.74
7182;BME280;3632;42.724;23.298;2022-09-13T09:35:27;95198.41;;;22.42;46.12
7182;BME280;3632;42.724;23.298;2022-09-13T09:40:49;95156.56;;;22.10;45.41
7182;BME280;3632;42.724;23.298;2022-09-13T09:43:19;95204.59;;;22.41;45.02
7182;BME280;3632;42.724;23.298;2022-09-13T09:45:51;95132.19;;;21.77;45.78
7182;BME280;3632;42.724;23.298;2022-09-13T09:48:23;95182.50;;;22.64;45.00
7182;BME280;3632;42.724;23.298;2022-09-13T09:50:56;95180.16;;;22.76;45.21
7182;BME280;3632;42.724;23.298;2022-09-13T09:53:44;95181.59;;;23.05;45.82
7182;BME280;3632;42.724;23.298;2022-09-13T09:56:20;95166.63;;;23.53;45.60
7182;BME280;3632;42.724;23.298;2022-09-13T09:58:47;95090.16;;;23.34;41.42
7182;BME280;3632;42.724;23.298;2022-09-13T10:01:22;95156.94;;;23.86;40.29
7182;BME280;3632;42.724;23.298;2022-09-13T10:03:53;95114.97;;;23.56;39.99
7182;BME280;3632;42.724;23.298;2022-09-13T10:06:24;95163.94;;;23.92;39.61
7182;BME280;3632;42.724;23.298;2022-09-13T10:08:58;95159.69;;;24.04;39.29
7182;BME280;3632;42.724;23.298;2022-09-13T10:11:46;95143.22;;;24.10;38.86
7182;BME280;3632;42.724;23.298;2022-09-13T10:14:38;95138.44;;;24.07;39.49
7182;BME280;3632;42.724;23.298;2022-09-13T10:17:16;95117.78;;;24.19;40.08
7182;BME280;3632;42.724;23.298;2022-09-13T10:19:52;95134.69;;;24.48;38.84
7182;BME280;3632;42.724;23.298;2022-09-13T10:22:20;95146.22;;;24.65;39.20
7182;BME280;3632;42.724;23.298;2022-09-13T10:24:47;95149.16;;;24.37;38.77
7182;BME280;3632;42.724;23.298;2022-09-13T10:27:24;95151.13;;;23.97;40.02
7182;BME280;3632;42.724;23.298;2022-09-13T10:29:53;94960.91;;;22.31;39.85
7182;BME280;3632;42.724;23.298;2022-09-13T10:32:25;95146.34;;;23.68;40.00
7182;BME280;3632;42.724;23.298;2022-09-13T10:34:54;95144.50;;;24.01;39.64
7182;BME280;3632;42.724;23.298;2022-09-13T10:37:25;95134.50;;;24.43;38.56
7182;BME280;3632;42.724;23.298;2022-09-13T10:40:00;95145.97;;;24.73;38.24
7182;BME280;3632;42.724;23.298;2022-09-13T10:42:28;95144.63;;;24.95;36.82
7182;BME280;3632;42.724;23.298;2022-09-13T10:44:57;95108.19;;;25.14;36.83
7182;BME280;3632;42.724;23.298;2022-09-13T11:10:12;95100.72;;;24.30;37.80
7182;BME280;3632;42.724;23.298;2022-09-13T11:12:45;95113.09;;;24.66;37.38
7182;BME280;3632;42.724;23.298;2022-09-13T11:15:29;95115.44;;;25.12;36.88
7182;BME280;3632;42.724;23.298;2022-09-13T11:18:08;95107.38;;;24.88;36.22
7182;BME280;3632;42.724;23.298;2022-09-13T11:20:46;95102.53;;;24.61;37.25
7182;BME280;3632;42.724;23.298;2022-09-13T11:26:27;94863.41;;;23.57;35.29
7182;BME280;3632;42.724;23.298;2022-09-13T11:29:06;95102.50;;;25.66;35.26
7182;BME280;3632;42.724;23.298;2022-09-13T11:31:41;95047.31;;;25.01;35.65
7182;BME280;3632;42.724;23.298;2022-09-13T11:34:20;95073.13;;;24.78;36.85
7182;BME280;3632;42.724;23.298;2022-09-13T11:37:07;95096.94;;;25.13;37.27
7182;BME280;3632;42.724;23.298;2022-09-13T11:39:40;94976.16;;;24.94;36.70
7182;BME280;3632;42.724;23.298;2022-09-13T11:42:23;95101.16;;;26.12;34.73
7182;BME280;3632;42.724;23.298;2022-09-13T11:45:17;95091.94;;;26.27;34.33
7182;BME280;3632;42.724;23.298;2022-09-13T11:48:00;95093.00;;;26.68;33.40
7182;BME280;3632;42.724;23.298;2022-09-13T11:50:34;95061.38;;;26.69;32.35
7182;BME280;3632;42.724;23.298;2022-09-13T11:53:21;95089.19;;;26.94;32.14
7182;BME280;3632;42.724;23.298;2022-09-13T11:55:54;95082.25;;;26.88;33.27
7182;BME280;3632;42.724;23.298;2022-09-13T11:58:27;95094.91;;;27.14;32.60
7182;BME280;3632;42.724;23.298;2022-09-13T12:00:59;95085.25;;;27.14;32.37
7182;BME280;3632;42.724;23.298;2022-09-13T12:03:30;95084.41;;;27.37;32.81
7182;BME280;3632;42.724;23.298;2022-09-13T12:06:01;95061.66;;;27.38;31.98
7182;BME280;3632;42.724;23.298;2022-09-13T12:08:34;95085.59;;;27.53;31.50
7182;BME280;3632;42.724;23.298;2022-09-13T12:11:04;95091.81;;;27.17;31.70
7182;BME280;3632;42.724;23.298;2022-09-13T12:13:40;95086.72;;;27.22;31.56
7182;BME280;3632;42.724;23.298;2022-09-13T12:16:13;95089.09;;;27.35;31.47
7182;BME280;3632;42.724;23.298;2022-09-13T12:18:45;95080.34;;;27.64;31.44
7182;BME280;3632;42.724;23.298;2022-09-13T12:21:15;95075.72;;;27.95;30.78
7182;BME280;3632;42.724;23.298;2022-09-13T12:23:50;95075.13;;;28.04;31.13
7182;BME280;3632;42.724;23.298;2022-09-13T12:26:20;95071.66;;;27.87;31.11
7182;BME280;3632;42.724;23.298;2022-09-13T12:28:53;95075.88;;;28.28;31.72
7182;BME280;3632;42.724;23.298;2022-09-13T12:31:23;95079.81;;;28.59;31.00
7182;BME280;3632;42.724;23.298;2022-09-13T12:33:51;95074.31;;;28.60;29.78
7182;BME280;3632;42.724;23.298;2022-09-13T12:36:34;95078.13;;;28.53;30.69
7182;BME280;3632;42.724;23.298;2022-09-13T12:39:37;95073.88;;;28.64;30.41
7182;BME280;3632;42.724;23.298;2022-09-13T12:45:19;95077.72;;;28.44;30.20
7182;BME280;3632;42.724;23.298;2022-09-13T12:48:00;95069.66;;;28.18;30.60
7182;BME280;3632;42.724;23.298;2022-09-13T12:50:50;95069.19;;;28.21;30.33
7182;BME280;3632;42.724;23.298;2022-09-13T12:53:33;95077.66;;;27.99;30.33
7182;BME280;3632;42.724;23.298;2022-09-13T12:56:26;95071.25;;;27.32;31.63
7182;BME280;3632;42.724;23.298;2022-09-13T12:59:11;95079.09;;;26.97;31.65
7182;BME280;3632;42.724;23.298;2022-09-13T13:01:46;95076.25;;;27.45;31.78
7182;BME280;3632;42.724;23.298;2022-09-13T13:04:17;95081.75;;;27.95;30.58
7182;BME280;3632;42.724;23.298;2022-09-13T13:06:50;95075.97;;;28.33;29.63
7182;BME280;3632;42.724;23.298;2022-09-13T13:09:27;95079.53;;;28.44;29.91
7182;BME280;3632;42.724;23.298;2022-09-13T13:11:57;95074.16;;;28.79;29.83
7182;BME280;3632;42.724;23.298;2022-09-13T13:14:42;95081.66;;;28.58;29.24
7182;BME280;3632;42.724;23.298;2022-09-13T13:17:39;95077.34;;;28.52;30.29
7182;BME280;3632;42.724;23.298;2022-09-13T13:23:22;95086.13;;;27.43;31.34
7182;BME280;3632;42.724;23.298;2022-09-13T13:26:07;95086.97;;;26.67;32.46
7182;BME280;3632;42.724;23.298;2022-09-13T13:31:43;95086.13;;;26.55;32.69
7182;BME280;3632;42.724;23.298;2022-09-13T13:34:36;95079.75;;;27.16;31.90
7182;BME280;3632;42.724;23.298;2022-09-13T13:37:04;95028.47;;;27.26;31.37
7182;BME280;3632;42.724;23.298;2022-09-13T13:39:48;95078.53;;;27.65;31.87
7182;BME280;3632;42.724;23.298;2022-09-13T13:42:35;95085.97;;;27.96;31.51
7182;BME280;3632;42.724;23.298;2022-09-13T13:45:17;95089.28;;;27.92;31.50
7182;BME280;3632;42.724;23.298;2022-09-13T13:48:09;95085.25;;;28.01;31.24
7182;BME280;3632;42.724;23.298;2022-09-13T13:53:37;95085.56;;;28.28;31.05
7182;BME280;3632;42.724;23.298;2022-09-13T13:56:16;95085.03;;;28.42;30.98
7182;BME280;3632;42.724;23.298;2022-09-13T13:58:48;95081.34;;;28.55;30.72
7182;BME280;3632;42.724;23.298;2022-09-13T14:01:20;95061.66;;;28.41;31.45
7182;BME280;3632;42.724;23.298;2022-09-13T14:04:18;95083.88;;;28.67;30.49
7182;BME280;3632;42.724;23.298;2022-09-13T14:07:05;95086.25;;;28.51;29.94
7182;BME280;3632;42.724;23.298;2022-09-13T14:09:40;95089.22;;;28.43;30.26
7182;BME280;3632;42.724;23.298;2022-09-13T14:12:19;95090.31;;;28.31;30.11
7182;BME280;3632;42.724;23.298;2022-09-13T14:18:10;95088.00;;;28.18;29.70
7182;BME280;3632;42.724;23.298;2022-09-13T14:23:34;95094.00;;;28.30;29.90
7182;BME280;3632;42.724;23.298;2022-09-13T14:26:03;95090.09;;;28.32;30.26
7182;BME280;3632;42.724;23.298;2022-09-13T14:28:31;95051.19;;;27.73;31.10
7182;BME280;3632;42.724;23.298;2022-09-13T14:30:58;95095.19;;;28.10;30.81
7182;BME280;3632;42.724;23.298;2022-09-13T14:33:27;95094.03;;;28.06;30.95